createdAt,value
2023-03-07T00:00:03.241Z,0
2023-03-07T00:15:02.657Z,0
2023-03-07T00:30:03.108Z,0
2023-03-07T00:45:02.525Z,0
2023-03-07T01:00:03.089Z,0
2023-03-07T01:15:02.405Z,0
2023-03-07T01:30:03.087Z,0
2023-03-07T01:45:02.335Z,0
2023-03-07T02:00:02.710Z,0
2023-03-07T02:15:03.159Z,0
2023-03-07T02:30:02.577Z,0
2023-03-07T02:45:03.095Z,0
2023-03-07T03:00:02.452Z,0
2023-03-07T03:15:03.096Z,0
2023-03-07T03:30:02.353Z,0
2023-03-07T03:45:02.823Z,0
2023-03-07T04:00:02.268Z,0
2023-03-07T04:15:02.685Z,0
2023-03-07T04:30:03.130Z,0
2023-03-07T04:45:04.722Z,0
2023-03-07T05:00:02.146Z,0
2023-03-07T05:15:02.448Z,0
2023-03-07T05:30:03.122Z,0
2023-03-07T05:45:02.320Z,0
2023-03-07T06:00:02.755Z,0
2023-03-07T06:15:03.198Z,0
2023-03-07T06:30:02.621Z,5
2023-03-07T06:45:03.139Z,3
2023-03-07T07:00:02.521Z,2
2023-03-07T07:15:03.140Z,10
2023-03-07T07:30:02.375Z,12
2023-03-07T07:45:02.831Z,24
2023-03-07T08:00:03.282Z,29
2023-03-07T08:15:02.688Z,35
2023-03-07T08:30:03.175Z,26
2023-03-07T08:45:02.603Z,34
2023-03-07T09:00:03.180Z,48
2023-03-07T09:15:02.452Z,42
2023-03-07T09:30:02.915Z,51
2023-03-07T09:45:02.392Z,74
2023-03-07T10:00:02.778Z,91
2023-03-07T10:15:03.215Z,85
2023-03-07T10:30:02.638Z,101
2023-03-07T10:45:03.185Z,182
2023-03-07T11:00:02.512Z,169
2023-03-07T11:15:03.097Z,180
2023-03-07T11:30:02.373Z,225
2023-03-07T11:45:02.785Z,146
2023-03-07T12:00:03.260Z,187
2023-03-07T12:15:02.676Z,163
2023-03-07T12:30:03.206Z,128
2023-03-07T12:45:02.567Z,82
2023-03-07T13:00:03.222Z,66
2023-03-07T13:15:02.440Z,75
2023-03-07T13:30:02.888Z,71
2023-03-07T13:45:02.329Z,163
2023-03-07T14:00:02.779Z,143
2023-03-07T14:15:03.223Z,12
2023-03-07T14:30:02.642Z,35
2023-03-07T14:45:03.232Z,52
2023-03-07T15:00:02.606Z,21
2023-03-07T15:15:02.975Z,11
2023-03-07T15:30:02.446Z,17
2023-03-07T15:45:02.851Z,15
2023-03-07T16:00:02.243Z,11
2023-03-07T16:15:02.719Z,7
2023-03-07T16:30:03.339Z,7
2023-03-07T16:45:02.575Z,5
2023-03-07T17:00:03.244Z,1
2023-03-07T17:15:03.478Z,0
2023-03-07T17:30:02.906Z,0
2023-03-07T17:45:02.344Z,0
2023-03-07T18:00:02.775Z,0
2023-03-07T18:15:03.275Z,0
2023-03-07T18:30:02.661Z,0
2023-03-07T18:45:03.278Z,0
2023-03-07T19:00:02.502Z,0
2023-03-07T19:15:03.011Z,0
2023-03-07T19:30:02.415Z,0
2023-03-07T19:45:02.874Z,0
2023-03-07T20:00:02.286Z,0
2023-03-07T20:15:02.723Z,0
2023-03-07T20:30:03.304Z,0
2023-03-07T20:45:02.626Z,0
2023-03-07T21:00:03.259Z,0
2023-03-07T21:15:02.491Z,0
2023-03-07T21:30:02.907Z,0
2023-03-07T21:45:02.337Z,0
2023-03-07T22:00:02.785Z,0
2023-03-07T22:15:03.310Z,0
2023-03-07T22:30:02.624Z,0
2023-03-07T23:00:02.514Z,0
2023-03-07T23:15:01.947Z,0
2023-03-07T23:30:02.407Z,0
2023-03-07T23:45:02.829Z,0
